Time;durP1;ratioP1;P1;durP2;ratioP2;P2;SDS_P1;SDS_P2;PMS_P1;PMS_P2;Temp;Humidity;BMP_temperature;BMP_pressure;BME280_temperature;BME280_humidity;BME280_pressure;Samples;Min_cycle;Max_cycle;Signal;HPM_P1;HPM_P2
2021/07/25 00:01:52;;;;;;;10.88;9.52;;;;;;;17.48;87.38;95084.34;5116865;28;20209;-77
2021/07/25 00:04:18;;;;;;;15.27;9.48;;;;;;;17.47;87.22;95071.41;5112173;28;20253;-77
2021/07/25 00:06:43;;;;;;;11.63;9.82;;;;;;;17.48;87.08;95078.28;5130767;27;20672;-76
2021/07/25 00:09:08;;;;;;;11.95;9.63;;;;;;;17.51;87.06;95076.09;5131860;28;20178;-76
2021/07/25 00:11:34;;;;;;;11.63;9.85;;;;;;;17.54;86.83;95077.47;5092460;28;20263;-76
2021/07/25 00:14:03;;;;;;;10.32;9.32;;;;;;;17.54;86.80;95072.25;5126713;28;20290;-76
2021/07/25 00:16:29;;;;;;;11.57;8.60;;;;;;;17.58;86.56;95076.09;5121585;28;20254;-76
2021/07/25 00:18:54;;;;;;;11.30;9.45;;;;;;;17.60;86.21;95086.38;5131818;27;20642;-76
2021/07/25 00:21:19;;;;;;;10.10;9.10;;;;;;;17.63;86.37;95096.47;5113368;27;20198;-76
2021/07/25 00:23:48;;;;;;;10.23;9.13;;;;;;;17.65;86.21;95099.69;5139694;27;20198;-76
2021/07/25 00:26:16;;;;;;;11.25;9.60;;;;;;;17.59;85.97;95101.31;5135248;27;20258;-76
2021/07/25 00:28:41;;;;;;;10.38;9.05;;;;;;;17.59;85.78;95106.59;5117384;27;20524;-77
2021/07/25 00:31:08;;;;;;;10.20;8.77;;;;;;;17.49;86.79;95108.78;5116975;27;20186;-77
2021/07/25 00:33:34;;;;;;;9.95;8.98;;;;;;;17.44;87.35;95111.22;5121361;27;20174;-77
2021/07/25 00:36:00;;;;;;;10.23;9.23;;;;;;;17.42;87.08;95100.09;5118839;27;20186;-76
2021/07/25 00:38:26;;;;;;;11.48;9.60;;;;;;;17.45;87.28;95103.13;5116991;27;20292;-76
2021/07/25 00:40:57;;;;;;;12.75;9.07;;;;;;;17.44;87.06;95098.88;5116522;27;20274;-77
2021/07/25 00:43:27;;;;;;;10.13;9.13;;;;;;;17.54;86.69;95093.25;5112388;27;20634;-76
2021/07/25 00:45:53;;;;;;;12.57;9.02;;;;;;;17.51;86.39;95077.91;5121881;27;20174;-77
2021/07/25 00:48:19;;;;;;;10.15;9.02;;;;;;;17.49;86.76;95072.03;5137202;27;20177;-76
2021/07/25 00:50:45;;;;;;;11.13;9.80;;;;;;;17.37;87.54;95050.03;5155447;27;20672;-76
2021/07/25 00:53:10;;;;;;;10.77;9.48;;;;;;;17.55;87.67;95022.16;5131976;27;20178;-76
2021/07/25 00:55:36;;;;;;;11.27;9.05;;;;;;;17.61;87.20;95031.03;5123204;27;20229;-75
2021/07/25 00:58:01;;;;;;;12.10;9.93;;;;;;;17.48;87.58;95028.41;5117970;27;20716;-76
2021/07/25 01:00:27;;;;;;;10.82;9.73;;;;;;;17.35;88.13;95021.34;5099041;27;20687;-77
2021/07/25 01:03:22;;;;;;;10.98;9.88;;;;;;;17.34;88.83;95037.31;5099099;27;20581;-76
2021/07/25 01:05:57;;;;;;;11.23;9.85;;;;;;;17.38;88.94;95062.13;5131809;27;20218;-76
2021/07/25 01:08:35;;;;;;;13.90;10.27;;;;;;;17.44;88.72;95058.72;5079008;28;20210;-77
2021/07/25 01:11:01;;;;;;;11.73;10.52;;;;;;;17.47;89.09;95066.97;5095772;28;20184;-76
2021/07/25 01:13:30;;;;;;;11.65;10.35;;;;;;;17.46;88.87;95068.00;5078509;28;20259;-77
2021/07/25 01:15:57;;;;;;;12.27;10.25;;;;;;;17.51;88.71;95067.41;5108759;27;20179;-76
2021/07/25 01:18:22;;;;;;;10.93;9.82;;;;;;;17.49;88.89;95064.97;5124057;27;20235;-77
2021/07/25 01:20:47;;;;;;;11.30;9.27;;;;;;;17.49;88.95;95075.47;5116155;27;20704;-77
2021/07/25 01:23:12;;;;;;;11.60;10.35;;;;;;;17.49;88.69;95072.03;5098502;27;20213;-76
2021/07/25 01:25:40;;;;;;;11.55;10.32;;;;;;;17.50;88.45;95077.09;5115470;27;20248;-77
2021/07/25 01:28:14;;;;;;;12.10;9.57;;;;;;;17.55;88.31;95079.91;5124375;27;20171;-77
2021/07/25 01:30:43;;;;;;;10.93;9.45;;;;;;;17.57;88.62;95071.81;5115951;27;20174;-77
2021/07/25 01:33:10;;;;;;;11.32;10.02;;;;;;;17.55;88.46;95073.84;5115605;27;20215;-77
2021/07/25 01:35:36;;;;;;;11.23;10.02;;;;;;;17.49;88.72;95066.78;5115874;27;20281;-76
2021/07/25 01:38:02;;;;;;;12.10;10.77;;;;;;;17.48;88.74;95058.09;5137806;27;20276;-77
2021/07/25 01:40:27;;;;;;;10.40;9.38;;;;;;;17.50;88.38;95057.91;5135923;27;20170;-77
2021/07/25 01:42:54;;;;;;;11.07;9.90;;;;;;;17.45;88.59;95057.69;5154502;27;20178;-77
2021/07/25 01:45:20;;;;;;;11.15;9.93;;;;;;;17.39;88.37;95054.06;5135994;27;20234;-76
2021/07/25 01:47:45;;;;;;;11.95;9.65;;;;;;;17.37;88.40;95056.06;5122204;27;20225;-75
2021/07/25 01:50:12;;;;;;;12.68;11.02;;;;;;;17.27;88.89;95060.91;5123698;27;20171;-77
2021/07/25 01:52:38;;;;;;;12.48;11.00;;;;;;;17.22;88.84;95068.56;5133494;27;20175;-76
2021/07/25 01:55:04;;;;;;;12.30;11.07;;;;;;;17.25;88.74;95058.50;5114888;27;20206;-77
2021/07/25 01:57:29;;;;;;;12.93;11.60;;;;;;;17.21;89.14;95064.34;5096730;27;20334;-77
2021/07/25 01:59:54;;;;;;;11.50;10.38;;;;;;;17.24;88.84;95074.44;5109339;27;20265;-76
2021/07/25 02:02:20;;;;;;;11.55;10.43;;;;;;;17.24;89.06;95075.25;5115160;27;20528;-76
2021/07/25 02:04:45;;;;;;;11.00;9.90;;;;;;;17.27;89.09;95074.84;5115155;27;20199;-77
2021/07/25 02:07:10;;;;;;;11.60;10.05;;;;;;;17.30;89.01;95060.50;5133161;27;20163;-76
2021/07/25 02:09:36;;;;;;;11.55;9.73;;;;;;;17.34;89.24;95061.75;5099785;28;20180;-76
2021/07/25 02:12:03;;;;;;;11.40;10.30;;;;;;;17.35;89.00;95059.91;5131303;27;20174;-77
2021/07/25 02:14:29;;;;;;;10.75;9.75;;;;;;;17.36;88.91;95056.28;5118267;27;20252;-77
2021/07/25 02:16:55;;;;;;;10.90;9.80;;;;;;;17.37;88.90;95050.03;5135450;27;20230;-77
2021/07/25 02:19:20;;;;;;;10.90;9.93;;;;;;;17.31;88.44;95042.94;5143403;27;20183;-77
2021/07/25 02:21:45;;;;;;;11.60;9.70;;;;;;;17.25;88.89;95063.75;5125148;27;20190;-77
2021/07/25 02:24:10;;;;;;;11.52;10.32;;;;;;;17.31;88.81;95061.31;5133268;27;20657;-77
2021/07/25 02:26:36;;;;;;;11.02;9.80;;;;;;;17.26;88.47;95057.50;5152346;27;20170;-77
2021/07/25 02:29:01;;;;;;;10.43;9.45;;;;;;;17.15;88.80;95050.22;5116694;27;20185;-77
2021/07/25 02:31:26;;;;;;;10.43;9.48;;;;;;;17.20;88.55;95041.72;5111465;27;20175;-77
2021/07/25 02:33:52;;;;;;;11.43;10.23;;;;;;;17.15;88.80;95039.72;5128071;27;20780;-77
2021/07/25 02:36:17;;;;;;;10.13;9.13;;;;;;;17.22;89.03;95058.88;5131412;27;20277;-77
2021/07/25 02:38:42;;;;;;;10.77;9.63;;;;;;;17.11;89.54;95071.78;5132834;27;20628;-77
2021/07/25 02:41:08;;;;;;;14.00;10.13;;;;;;;17.18;89.77;95072.63;5119219;27;20191;-77
2021/07/25 02:43:33;;;;;;;13.20;10.43;;;;;;;17.17;89.46;95066.56;5124416;27;20248;-77
2021/07/25 02:45:58;;;;;;;13.25;11.10;;;;;;;17.13;89.64;95070.56;5131577;27;20167;-77
2021/07/25 02:48:23;;;;;;;11.15;10.05;;;;;;;17.18;89.41;95070.00;5131587;27;20513;-77
2021/07/25 02:50:49;;;;;;;12.75;10.15;;;;;;;17.20;89.16;95076.66;5130140;27;20557;-76
2021/07/25 02:53:14;;;;;;;10.88;9.77;;;;;;;17.13;89.46;95069.78;5132467;27;20175;-77
2021/07/25 02:55:39;;;;;;;10.48;9.32;;;;;;;17.24;88.69;95071.81;5097128;27;20207;-76
2021/07/25 02:58:05;;;;;;;11.52;9.68;;;;;;;17.11;88.83;95077.84;5114345;28;20199;-77
2021/07/25 03:00:30;;;;;;;10.43;9.32;;;;;;;17.04;89.00;95070.97;5132510;27;20191;-76
2021/07/25 03:02:56;;;;;;;10.30;9.15;;;;;;;16.99;89.26;95076.81;5115033;28;20705;-77
2021/07/25 03:05:23;;;;;;;11.27;9.82;;;;;;;16.88;89.45;95067.72;5104684;28;20611;-77
2021/07/25 03:07:48;;;;;;;9.80;8.52;;;;;;;16.91;89.41;95059.44;5097167;28;20225;-76
2021/07/25 03:10:13;;;;;;;10.95;9.95;;;;;;;16.93;89.46;95070.53;5132389;27;20179;-77
2021/07/25 03:12:39;;;;;;;10.93;9.93;;;;;;;16.93;90.02;95074.97;5117059;27;20642;-77
2021/07/25 03:15:05;;;;;;;10.05;9.15;;;;;;;16.94;89.50;95066.09;5122320;28;20199;-76
2021/07/25 03:17:30;;;;;;;10.68;9.57;;;;;;;16.92;89.04;95065.50;5134491;27;20222;-77
2021/07/25 03:19:55;;;;;;;10.20;9.25;;;;;;;16.83;89.65;95066.69;5134627;27;20858;-77
2021/07/25 03:22:22;;;;;;;12.85;9.50;;;;;;;16.83;89.50;95069.31;5152845;27;20179;-76
2021/07/25 03:24:47;;;;;;;11.48;9.85;;;;;;;16.78;89.55;95069.88;5119026;27;20681;-77
2021/07/25 03:27:12;;;;;;;10.75;9.63;;;;;;;16.77;89.29;95067.47;5114325;28;20186;-76
2021/07/25 03:29:38;;;;;;;10.70;9.60;;;;;;;16.74;89.30;95076.53;5132309;28;20171;-77
2021/07/25 03:32:04;;;;;;;11.43;9.43;;;;;;;16.66;89.45;95064.38;5113892;28;20192;-77
2021/07/25 03:34:32;;;;;;;11.13;9.93;;;;;;;16.62;89.13;95070.22;5114039;28;20198;-76
2021/07/25 03:36:58;;;;;;;11.18;10.05;;;;;;;16.61;89.10;95069.44;5114295;28;20569;-77
2021/07/25 03:39:24;;;;;;;11.95;10.18;;;;;;;16.64;89.21;95063.78;5096866;28;20270;-77
2021/07/25 03:41:50;;;;;;;11.18;10.02;;;;;;;16.63;89.07;95067.41;5113683;28;20171;-76
2021/07/25 03:44:16;;;;;;;11.18;9.52;;;;;;;16.64;89.01;95074.25;5094454;27;20285;-77
2021/07/25 03:46:41;;;;;;;10.73;9.63;;;;;;;16.68;89.11;95075.50;5125796;27;20533;-77
2021/07/25 03:49:07;;;;;;;8.63;7.85;;;;;;;16.79;89.16;95081.22;5114952;28;20171;-77
2021/07/25 03:51:33;;;;;;;9.70;8.80;;;;;;;16.77;89.09;95075.34;5113495;28;20232;-77
2021/07/25 03:53:58;;;;;;;10.23;9.23;;;;;;;16.75;89.03;95074.72;5113588;28;20196;-76
2021/07/25 03:56:23;;;;;;;10.10;9.10;;;;;;;16.76;89.25;95073.72;5132481;27;20616;-76
2021/07/25 03:58:49;;;;;;;10.02;8.73;;;;;;;16.76;89.57;95078.97;5121460;27;20258;-77
2021/07/25 04:01:14;;;;;;;10.68;9.57;;;;;;;16.81;89.40;95071.31;5100205;27;20519;-76
2021/07/25 04:03:39;;;;;;;10.13;8.90;;;;;;;16.84;89.01;95070.91;5117402;27;20577;-76
2021/07/25 04:06:05;;;;;;;10.90;8.95;;;;;;;16.86;88.82;95063.66;5094811;27;20192;-77
2021/07/25 04:08:30;;;;;;;10.85;9.75;;;;;;;16.82;89.10;95073.75;5125794;27;20171;-77
2021/07/25 04:10:55;;;;;;;10.82;9.75;;;;;;;16.86;88.58;95074.97;5137892;27;20185;-77
2021/07/25 04:13:21;;;;;;;10.52;9.48;;;;;;;16.97;88.25;95073.59;5156341;27;20622;-77
2021/07/25 04:15:47;;;;;;;11.30;8.68;;;;;;;17.07;87.35;95084.50;5137274;27;20326;-75
2021/07/25 04:18:12;;;;;;;10.32;8.73;;;;;;;16.95;87.58;95079.00;5139096;27;20199;-76
2021/07/25 04:20:38;;;;;;;10.20;9.30;;;;;;;16.85;88.15;95083.03;5122326;27;20535;-77
2021/07/25 04:23:03;;;;;;;10.02;9.02;;;;;;;16.86;88.17;95095.13;5116978;27;20187;-77
2021/07/25 04:25:30;;;;;;;10.88;9.88;;;;;;;16.79;89.00;95089.09;5117095;27;20198;-76
2021/07/25 04:28:00;;;;;;;9.65;8.75;;;;;;;16.91;87.98;95096.16;5114845;27;20258;-76
2021/07/25 04:30:30;;;;;;;10.60;9.00;;;;;;;16.98;87.98;95090.94;5123780;27;20258;-77
2021/07/25 04:32:56;;;;;;;11.65;9.15;;;;;;;17.04;87.96;95087.50;5116570;27;20312;-77
2021/07/25 04:35:22;;;;;;;9.48;8.57;;;;;;;17.06;87.77;95089.97;5099865;27;20707;-76
2021/07/25 04:37:55;;;;;;;10.48;8.98;;;;;;;17.22;86.92;95095.63;5135425;27;20289;-76
2021/07/25 04:40:21;;;;;;;9.98;8.98;;;;;;;17.14;87.31;95098.44;5127115;27;20201;-77
2021/07/25 04:42:55;;;;;;;10.73;9.63;;;;;;;17.12;87.24;95105.69;5116594;27;20179;-77
2021/07/25 04:45:42;;;;;;;11.57;10.48;;;;;;;17.14;87.51;95102.88;5116709;27;20183;-77
2021/07/25 04:48:07;;;;;;;11.52;10.27;;;;;;;17.24;86.95;95108.56;5114433;27;20180;-76
2021/07/25 04:50:40;;;;;;;10.57;9.55;;;;;;;17.28;86.71;95105.31;5128696;27;20668;-77
2021/07/25 04:53:06;;;;;;;12.45;9.82;;;;;;;17.26;87.41;95104.72;5116177;27;20174;-77
2021/07/25 04:55:34;;;;;;;12.88;10.85;;;;;;;17.33;87.07;95098.69;5116388;27;20758;-77
2021/07/25 04:58:04;;;;;;;13.98;10.77;;;;;;;17.45;86.97;95107.56;5134647;27;20187;-77
2021/07/25 05:00:31;;;;;;;11.63;10.52;;;;;;;17.78;86.11;95100.53;5119594;27;20253;-76
2021/07/25 05:03:01;;;;;;;12.70;10.75;;;;;;;17.97;85.76;95104.16;5101878;27;20175;-77
2021/07/25 05:05:26;;;;;;;12.10;10.77;;;;;;;18.43;83.40;95107.72;5115784;27;20194;-76
2021/07/25 05:07:53;;;;;;;11.57;10.43;;;;;;;18.96;81.60;95108.34;5116274;27;20186;-76
2021/07/25 05:10:19;;;;;;;10.27;9.18;;;;;;;18.77;80.57;95112.69;5097682;28;20180;-77
2021/07/25 05:12:49;;;;;;;10.70;9.60;;;;;;;19.81;76.80;95116.75;5119486;27;20262;-76
2021/07/25 05:15:17;;;;;;;10.88;9.80;;;;;;;19.59;77.30;95120.75;5116142;27;20218;-77
2021/07/25 05:17:51;;;;;;;10.65;9.55;;;;;;;19.17;77.69;95125.63;5116468;27;20201;-77
2021/07/25 05:20:17;;;;;;;9.95;9.05;;;;;;;18.90;78.71;95122.34;5116266;27;20183;-77
2021/07/25 05:22:51;;;;;;;10.10;9.10;;;;;;;18.71;79.24;95129.28;5128943;27;20178;-77
2021/07/25 05:25:20;;;;;;;10.02;9.02;;;;;;;18.67;79.67;95130.72;5096194;28;20202;-77
2021/07/25 05:27:48;;;;;;;10.95;9.77;;;;;;;18.69;80.82;95120.81;5097030;28;20562;-77
2021/07/25 05:30:15;;;;;;;10.75;9.65;;;;;;;18.66;80.78;95123.88;5095664;28;20168;-77
2021/07/25 05:32:41;;;;;;;10.10;9.10;;;;;;;18.60;80.87;95130.72;5129906;27;20647;-77
2021/07/25 05:35:07;;;;;;;9.82;8.85;;;;;;;18.67;80.78;95128.91;5117273;27;20248;-77
2021/07/25 05:37:32;;;;;;;10.70;9.55;;;;;;;18.52;81.15;95119.63;5113248;27;20196;-77
2021/07/25 05:39:57;;;;;;;11.00;9.15;;;;;;;18.56;81.36;95123.47;5123568;27;20182;-76
2021/07/25 05:42:23;;;;;;;9.88;8.80;;;;;;;18.64;80.76;95120.56;5115689;27;20171;-76
2021/07/25 05:44:48;;;;;;;11.52;9.00;;;;;;;18.72;80.72;95125.63;5115331;27;20191;-76
2021/07/25 05:47:13;;;;;;;9.60;8.70;;;;;;;19.09;79.39;95131.97;5115540;27;20251;-76
2021/07/25 05:49:39;;;;;;;8.63;7.82;;;;;;;19.14;79.79;95126.88;5117500;27;20530;-76
2021/07/25 05:52:04;;;;;;;9.07;8.27;;;;;;;19.32;78.30;95136.69;5106431;27;20171;-76
2021/07/25 05:54:29;;;;;;;10.43;7.75;;;;;;;19.11;79.16;95137.03;5134516;27;20210;-76
2021/07/25 05:56:55;;;;;;;9.05;8.23;;;;;;;19.08;79.38;95137.44;5115198;27;20263;-76
2021/07/25 05:59:20;;;;;;;9.07;8.18;;;;;;;19.09;78.97;95128.53;5115839;27;20183;-77
2021/07/25 06:01:45;;;;;;;9.18;7.57;;;;;;;18.98;79.65;95134.44;5110277;27;20177;-76
2021/07/25 06:04:11;;;;;;;9.18;8.27;;;;;;;18.99;79.63;95133.41;5136361;27;20190;-77
2021/07/25 06:06:36;;;;;;;9.20;8.30;;;;;;;19.24;78.80;95137.75;5135912;27;20533;-77
2021/07/25 06:09:07;;;;;;;8.90;7.53;;;;;;;18.86;79.33;95140.38;5118775;27;20641;-77
2021/07/25 06:11:33;;;;;;;11.02;7.80;;;;;;;18.69;79.98;95139.22;5122229;27;20183;-77
2021/07/25 06:13:59;;;;;;;9.45;7.40;;;;;;;18.99;78.22;95131.59;5135997;27;20191;-77
2021/07/25 06:16:24;;;;;;;11.57;7.43;;;;;;;18.72;79.11;95128.28;5133677;27;20580;-77
2021/07/25 06:18:50;;;;;;;7.85;6.93;;;;;;;18.85;79.13;95130.88;5114185;27;20187;-77
2021/07/25 06:21:18;;;;;;;8.02;7.22;;;;;;;18.84;79.27;95129.25;5112607;27;20174;-77
2021/07/25 06:23:49;;;;;;;10.27;7.45;;;;;;;18.89;79.12;95139.94;5113273;27;20181;-77
2021/07/25 06:26:14;;;;;;;7.88;7.18;;;;;;;18.87;79.11;95138.53;5132040;27;20254;-76
2021/07/25 06:28:40;;;;;;;7.72;7.03;;;;;;;18.96;78.71;95146.00;5133184;27;20599;-77
2021/07/25 06:31:05;;;;;;;9.25;7.65;;;;;;;18.89;78.69;95141.75;5112605;27;21162;-76
2021/07/25 06:33:31;;;;;;;9.13;8.23;;;;;;;18.90;78.25;95135.47;5125731;27;20190;-76
2021/07/25 06:35:56;;;;;;;9.20;8.27;;;;;;;18.66;79.52;95135.19;5117531;27;20171;-77
2021/07/25 06:38:22;;;;;;;12.57;8.50;;;;;;;18.57;79.96;95132.97;5097895;27;20210;-77
2021/07/25 06:40:50;;;;;;;10.10;7.93;;;;;;;18.86;78.31;95135.09;5114592;27;20183;-77
2021/07/25 06:43:16;;;;;;;9.32;8.43;;;;;;;18.54;79.70;95133.34;5098086;27;20182;-77
2021/07/25 06:45:41;;;;;;;9.13;8.18;;;;;;;18.69;78.97;95136.59;5119586;27;20203;-77
2021/07/25 06:48:18;;;;;;;9.32;8.32;;;;;;;18.54;80.11;95135.97;5097917;27;20213;-78
2021/07/25 06:50:43;;;;;;;9.13;8.30;;;;;;;18.60;78.82;95132.53;5097898;27;20557;-77
2021/07/25 06:53:08;;;;;;;10.90;8.63;;;;;;;18.77;79.13;95131.09;5115865;27;20301;-78
2021/07/25 06:55:33;;;;;;;8.43;7.50;;;;;;;18.90;78.26;95125.75;5122772;27;20213;-78
2021/07/25 06:57:59;;;;;;;8.95;8.10;;;;;;;19.10;77.74;95130.16;5132863;27;20199;-78
2021/07/25 07:00:26;;;;;;;9.20;8.30;;;;;;;19.13;78.33;95127.91;5098625;27;20179;-78
2021/07/25 07:02:52;;;;;;;8.85;7.95;;;;;;;19.29;77.00;95117.91;5097580;28;20228;-77
2021/07/25 07:05:25;;;;;;;11.50;8.15;;;;;;;19.98;74.77;95117.81;5122952;27;20198;-79
2021/07/25 07:07:52;;;;;;;8.68;7.88;;;;;;;20.14;74.19;95116.44;5127964;27;20213;-79
2021/07/25 07:10:23;;;;;;;9.73;7.63;;;;;;;20.44;71.97;95121.88;5133470;28;20706;-79
2021/07/25 07:12:49;;;;;;;8.75;7.45;;;;;;;20.46;72.05;95126.91;5115914;28;20657;-79
2021/07/25 07:15:16;;;;;;;9.55;7.63;;;;;;;20.86;70.71;95119.38;5118184;28;20207;-79
2021/07/25 07:17:42;;;;;;;8.60;7.57;;;;;;;21.97;66.28;95115.38;5120191;28;20194;-78
2021/07/25 07:20:09;;;;;;;8.80;6.55;;;;;;;22.94;63.25;95120.97;5115613;28;20175;-78
2021/07/25 07:22:35;;;;;;;7.05;6.35;;;;;;;22.48;64.92;95127.13;5133191;28;20300;-78
2021/07/25 07:25:01;;;;;;;7.50;6.75;;;;;;;21.32;66.72;95129.38;5113134;27;20719;-78
2021/07/25 07:27:27;;;;;;;9.40;7.75;;;;;;;21.29;67.54;95123.72;5113253;28;20182;-78
2021/07/25 07:29:54;;;;;;;7.78;7.05;;;;;;;21.05;68.81;95130.72;5115436;27;20175;-78
2021/07/25 07:32:19;;;;;;;8.05;7.25;;;;;;;20.55;70.41;95118.50;5117442;27;20533;-78
2021/07/25 07:34:45;;;;;;;8.43;7.68;;;;;;;20.35;70.25;95128.44;5135660;27;20314;-77
2021/07/25 07:37:10;;;;;;;8.13;6.63;;;;;;;20.36;71.96;95132.66;5105845;27;20619;-78
2021/07/25 07:39:39;;;;;;;7.70;7.00;;;;;;;20.26;72.71;95140.28;5134221;27;20175;-78
2021/07/25 07:42:06;;;;;;;8.48;7.72;;;;;;;19.98;73.45;95136.28;5116032;27;20252;-79
2021/07/25 07:44:31;;;;;;;9.43;7.68;;;;;;;20.09;73.27;95135.56;5116202;27;20686;-79
2021/07/25 07:46:57;;;;;;;8.40;6.57;;;;;;;19.98;73.36;95132.84;5091281;27;20188;-78
2021/07/25 07:49:22;;;;;;;7.68;6.93;;;;;;;19.94;73.54;95135.06;5126583;27;20179;-79
2021/07/25 07:51:47;;;;;;;10.43;7.95;;;;;;;19.99;73.43;95134.44;5119468;27;20186;-79
2021/07/25 07:54:13;;;;;;;8.27;7.40;;;;;;;20.11;73.79;95131.91;5138099;27;20205;-78
2021/07/25 07:56:38;;;;;;;8.35;7.55;;;;;;;20.03;73.69;95132.97;5117936;27;20210;-79
2021/07/25 07:59:03;;;;;;;8.68;7.70;;;;;;;20.35;73.25;95125.78;5110842;27;20603;-79
2021/07/25 08:01:29;;;;;;;8.57;7.60;;;;;;;20.75;71.29;95128.81;5119654;27;20171;-79
2021/07/25 08:03:54;;;;;;;8.73;7.93;;;;;;;20.78;71.07;95125.75;5138192;27;20674;-78
2021/07/25 08:06:19;;;;;;;8.50;7.63;;;;;;;21.15;69.84;95126.50;5102649;27;20171;-77
2021/07/25 08:08:45;;;;;;;8.75;7.95;;;;;;;21.70;67.69;95131.66;5100522;28;20184;-77
2021/07/25 08:11:10;;;;;;;7.63;6.93;;;;;;;21.88;67.90;95132.59;5135486;27;20182;-75
2021/07/25 08:13:35;;;;;;;8.07;7.30;;;;;;;21.92;67.54;95139.84;5136836;27;20170;-77
2021/07/25 08:16:01;;;;;;;8.00;7.20;;;;;;;22.07;66.20;95136.78;5102061;27;20204;-79
2021/07/25 08:18:26;;;;;;;8.63;7.40;;;;;;;21.81;65.81;95135.34;5096738;28;20638;-78
2021/07/25 08:20:51;;;;;;;7.10;6.40;;;;;;;21.71;65.06;95133.25;5107401;28;20194;-78
2021/07/25 08:23:17;;;;;;;7.25;6.30;;;;;;;21.36;64.95;95132.34;5115699;28;20961;-79
2021/07/25 08:25:42;;;;;;;8.13;7.18;;;;;;;21.32;66.37;95125.91;5115392;28;20195;-79
2021/07/25 08:28:07;;;;;;;7.13;6.15;;;;;;;21.56;66.31;95127.59;5115324;28;20346;-78
2021/07/25 08:30:33;;;;;;;8.85;7.05;;;;;;;21.19;66.67;95129.50;5108921;27;20178;-79
2021/07/25 08:32:58;;;;;;;9.10;6.55;;;;;;;20.81;68.10;95124.50;5121857;27;20645;-78
2021/07/25 08:35:24;;;;;;;7.43;6.60;;;;;;;20.91;68.78;95124.78;5119465;27;20340;-78
2021/07/25 08:37:49;;;;;;;6.90;6.30;;;;;;;20.61;69.46;95130.00;5101947;27;20719;-79
2021/07/25 08:40:15;;;;;;;7.72;6.78;;;;;;;21.05;67.47;95122.78;5122290;27;20182;-79
2021/07/25 08:42:58;;;;;;;7.97;6.88;;;;;;;20.85;68.25;95129.13;5137365;27;20296;-78
2021/07/25 08:45:24;;;;;;;6.43;5.78;;;;;;;21.69;64.78;95126.59;5101987;27;20206;-77
2021/07/25 08:47:54;;;;;;;9.07;6.22;;;;;;;21.35;64.99;95125.47;5119035;27;20179;-78
2021/07/25 08:50:27;;;;;;;7.75;6.55;;;;;;;21.55;65.11;95127.81;5114781;27;20582;-79
2021/07/25 08:52:53;;;;;;;6.85;6.15;;;;;;;22.16;62.23;95124.84;5109805;27;20212;-78
2021/07/25 08:55:20;;;;;;;6.35;5.75;;;;;;;22.47;61.10;95125.53;5137454;27;20227;-78
2021/07/25 08:57:47;;;;;;;6.38;5.43;;;;;;;22.99;59.16;95136.97;5118647;27;20192;-79
2021/07/25 09:00:15;;;;;;;6.93;5.90;;;;;;;22.95;58.40;95121.78;5100256;27;20173;-79
2021/07/25 09:02:41;;;;;;;7.30;5.70;;;;;;;21.96;60.57;95126.97;5139145;27;20171;-78
2021/07/25 09:05:10;;;;;;;7.25;5.35;;;;;;;22.08;60.02;95121.72;5119614;27;20199;-79
2021/07/25 09:07:38;;;;;;;6.20;4.75;;;;;;;22.65;57.05;95135.16;5117511;27;20169;-78
2021/07/25 09:10:26;;;;;;;6.22;4.53;;;;;;;22.89;57.12;95139.41;5100033;27;20171;-78
2021/07/25 09:12:52;;;;;;;6.82;5.80;;;;;;;22.64;59.84;95136.22;5140125;27;20187;-77
2021/07/25 09:15:36;;;;;;;7.80;5.80;;;;;;;22.43;60.87;95140.22;5100681;27;20198;-78
2021/07/25 09:18:03;;;;;;;6.68;5.88;;;;;;;22.15;59.62;95133.00;5101804;27;20199;-77
2021/07/25 09:20:36;;;;;;;8.38;6.32;;;;;;;22.38;60.50;95132.19;5118900;27;20178;-77
2021/07/25 09:23:03;;;;;;;6.05;5.22;;;;;;;22.74;59.75;95137.22;5114517;27;20190;-76
2021/07/25 09:25:35;;;;;;;6.72;5.97;;;;;;;22.37;60.30;95135.88;5134849;27;20206;-77
2021/07/25 09:28:00;;;;;;;6.93;5.80;;;;;;;22.19;59.92;95134.97;5116947;27;20531;-78
2021/07/25 09:30:28;;;;;;;7.95;5.85;;;;;;;22.17;60.18;95142.31;5135367;27;20168;-79
2021/07/25 09:32:54;;;;;;;5.97;5.38;;;;;;;22.24;59.48;95147.50;5134855;27;20191;-79
2021/07/25 09:35:23;;;;;;;6.95;5.95;;;;;;;21.93;60.44;95156.53;5124941;27;20256;-78
2021/07/25 09:37:51;;;;;;;7.13;5.82;;;;;;;21.65;60.26;95157.16;5135332;27;20226;-80
2021/07/25 09:40:23;;;;;;;6.30;5.70;;;;;;;21.61;60.93;95162.06;5117225;27;20627;-79
2021/07/25 09:42:49;;;;;;;6.07;5.57;;;;;;;21.51;62.18;95161.00;5115690;27;20183;-78
2021/07/25 09:45:15;;;;;;;8.00;5.68;;;;;;;21.40;62.00;95152.00;5120436;27;20221;-79
2021/07/25 09:47:43;;;;;;;7.18;5.70;;;;;;;21.39;62.24;95158.34;5121570;27;20573;-79
2021/07/25 09:50:08;;;;;;;9.85;5.63;;;;;;;21.45;61.62;95152.94;5100046;27;20175;-78
2021/07/25 09:52:38;;;;;;;6.10;5.40;;;;;;;21.57;62.27;95155.63;5116932;27;20197;-78
2021/07/25 09:55:08;;;;;;;6.28;5.65;;;;;;;21.19;62.74;95171.75;5096698;27;20714;-77
2021/07/25 09:57:35;;;;;;;6.75;5.82;;;;;;;21.58;61.66;95161.72;5121633;27;20231;-78
2021/07/25 10:00:08;;;;;;;6.68;5.45;;;;;;;21.94;61.67;95169.50;5099427;27;20167;-78
2021/07/25 10:02:37;;;;;;;7.53;5.60;;;;;;;21.94;62.15;95169.50;5099424;27;20557;-78
2021/07/25 10:05:19;;;;;;;5.85;5.25;;;;;;;22.21;62.25;95166.47;5117906;27;20557;-79
2021/07/25 10:07:48;;;;;;;5.80;5.20;;;;;;;22.24;60.14;95161.50;5126175;27;20179;-79
2021/07/25 10:10:15;;;;;;;6.78;5.30;;;;;;;22.68;59.32;95159.31;5136940;27;20179;-78
2021/07/25 10:12:42;;;;;;;6.32;5.30;;;;;;;22.66;59.17;95161.41;5136270;27;20174;-78
2021/07/25 10:15:09;;;;;;;6.45;5.50;;;;;;;22.58;59.36;95159.09;5113700;27;20203;-78
2021/07/25 10:17:37;;;;;;;5.78;5.15;;;;;;;22.32;59.64;95149.78;5110193;27;20209;-78
2021/07/25 10:20:05;;;;;;;6.95;5.43;;;;;;;22.48;59.41;95161.53;5100215;27;20508;-77
2021/07/25 10:22:32;;;;;;;6.32;4.97;;;;;;;21.98;60.67;95169.84;5097994;27;20190;-79
2021/07/25 10:25:00;;;;;;;5.60;5.10;;;;;;;21.89;61.30;95168.56;5098359;27;20312;-78
2021/07/25 10:27:26;;;;;;;5.88;5.38;;;;;;;22.05;59.78;95154.69;5096629;27;20262;-78
2021/07/25 10:29:53;;;;;;;5.75;5.13;;;;;;;21.76;60.59;95157.19;5101888;27;20178;-78
2021/07/25 10:32:20;;;;;;;6.63;5.05;;;;;;;22.03;60.73;95149.63;5114005;27;20183;-78
2021/07/25 10:34:46;;;;;;;5.95;5.45;;;;;;;21.89;60.85;95150.06;5132623;27;20203;-77
2021/07/25 10:37:12;;;;;;;5.80;5.18;;;;;;;21.96;61.53;95148.94;5115950;27;20283;-79
2021/07/25 10:39:42;;;;;;;5.65;5.15;;;;;;;22.09;61.09;95139.22;5124288;27;20623;-78
2021/07/25 10:42:08;;;;;;;6.97;4.75;;;;;;;22.12;60.45;95142.19;5115069;27;20171;-78
2021/07/25 10:44:33;;;;;;;8.45;4.53;;;;;;;22.28;61.08;95157.38;5098061;27;20670;-79
2021/07/25 10:47:17;;;;;;;5.80;5.30;;;;;;;21.71;61.59;95149.09;5112808;27;20266;-77
2021/07/25 10:49:42;;;;;;;6.47;5.15;;;;;;;21.41;63.25;95153.63;5118800;27;20178;-78
2021/07/25 10:52:08;;;;;;;6.00;5.43;;;;;;;21.46;62.69;95161.66;5130362;27;20178;-77
2021/07/25 10:54:34;;;;;;;5.13;4.60;;;;;;;21.50;63.34;95154.91;5131912;27;20315;-78
2021/07/25 10:57:11;;;;;;;5.30;4.80;;;;;;;21.37;63.71;95153.25;5131797;27;20190;-77
2021/07/25 10:59:55;;;;;;;9.45;5.60;;;;;;;21.12;64.35;95150.72;5131353;27;20188;-78
2021/07/25 11:02:20;;;;;;;6.65;5.10;;;;;;;21.09;64.20;95153.78;5112987;28;20172;-78
2021/07/25 11:04:54;;;;;;;6.43;5.40;;;;;;;21.24;63.73;95158.69;5111759;28;20206;-77
2021/07/25 11:07:23;;;;;;;7.60;5.43;;;;;;;21.16;64.28;95161.63;5094450;28;20414;-77
2021/07/25 11:09:55;;;;;;;6.47;5.70;;;;;;;21.28;65.75;95159.06;5126842;27;20246;-78
2021/07/25 11:12:20;;;;;;;6.60;5.25;;;;;;;21.29;66.23;95158.03;5119755;27;20167;-79
2021/07/25 11:14:55;;;;;;;8.40;5.05;;;;;;;21.29;65.99;95152.75;5154146;27;20194;-78
2021/07/25 11:17:46;;;;;;;5.93;5.32;;;;;;;21.28;65.70;95159.06;5153954;27;20236;-78
2021/07/25 11:20:30;;;;;;;7.35;5.70;;;;;;;21.19;66.88;95162.00;5125906;27;20187;-79
2021/07/25 11:22:56;;;;;;;6.18;4.93;;;;;;;20.89;66.79;95161.16;5122560;28;20171;-79
2021/07/25 11:25:29;;;;;;;5.68;5.18;;;;;;;20.92;66.97;95161.50;5114904;28;20187;-78
2021/07/25 11:27:54;;;;;;;9.75;5.57;;;;;;;20.88;65.71;95164.81;5133703;28;20642;-78
2021/07/25 11:30:48;;;;;;;6.93;5.32;;;;;;;20.63;66.81;95157.78;5096730;27;20183;-79